Diamond, New York
Current Conditions -  °F | °C
As of 4:11 AM on Monday 22 Dec 2014 (Local Time) from KART Reporting Station
Haze Haze  
Wind Chill: 20°   Ceiling: 2800
Heat Index: 20°   Visibility: 5mi
Dew Point: 14°   Wind: 0mph
Humidity: 78%   Direction: NA
Pressure: 30.33"   Gusts: NA
Location:  43.7413°N, 75.859°W
Report Text: KART 220911Z AUTO 00000KT 5SM HZ OVC028 M07/M10 A3033 RMK AO2 T10671100
Loading
Personal Weather Stations






























Interactive Weather Map New forecast layout! Learn more

10-Day Weather Forecast

Advertisements
Track Severe Weather on mobile